Time;durP1;ratioP1;P1;durP2;ratioP2;P2;SDS_P1;SDS_P2;PMS_P1;PMS_P2;Temp;Humidity;BMP_temperature;BMP_pressure;BME280_temperature;BME280_humidity;BME280_pressure;Samples;Min_cycle;Max_cycle;Signal;HPM_P1;HPM_P2
2023/01/13 00:00:31;;;;;;;26.27;5.45;;;8.60;99.90;;;;;;5073924;28;20044;-48
2023/01/13 00:02:56;;;;;;;30.92;4.78;;;8.60;99.90;;;;;;5077567;28;20038;-49
2023/01/13 00:05:22;;;;;;;32.00;5.82;;;8.50;99.90;;;;;;5068227;28;20051;-48
2023/01/13 00:07:48;;;;;;;34.08;5.43;;;8.50;99.90;;;;;;5068824;28;20446;-50
2023/01/13 00:10:14;;;;;;;34.67;5.65;;;8.40;99.90;;;;;;5069832;28;20495;-48
2023/01/13 00:12:41;;;;;;;23.63;4.65;;;8.40;99.90;;;;;;5069514;28;20041;-48
2023/01/13 00:15:08;;;;;;;40.95;5.28;;;8.40;99.90;;;;;;5081181;28;20075;-48
2023/01/13 00:17:33;;;;;;;34.38;6.00;;;8.40;99.90;;;;;;5068337;28;20036;-47
2023/01/13 00:19:59;;;;;;;37.08;5.53;;;8.40;99.90;;;;;;5069551;28;20510;-49
2023/01/13 00:22:25;;;;;;;32.35;4.93;;;8.30;99.90;;;;;;5069595;28;20066;-50
2023/01/13 00:24:50;;;;;;;28.63;5.57;;;8.30;99.90;;;;;;5069444;28;20044;-49
2023/01/13 00:27:16;;;;;;;32.30;5.03;;;8.30;99.90;;;;;;5068275;28;20554;-52
2023/01/13 00:29:42;;;;;;;32.28;4.97;;;8.30;99.90;;;;;;5068534;28;20028;-49
2023/01/13 00:32:07;;;;;;;34.38;3.97;;;8.20;99.90;;;;;;5078122;28;20089;-49
2023/01/13 00:34:33;;;;;;;20.25;3.88;;;8.20;99.90;;;;;;5085531;28;20036;-49
2023/01/13 00:36:59;;;;;;;30.85;4.65;;;8.20;99.90;;;;;;5068275;28;20071;-51
2023/01/13 00:39:24;;;;;;;32.58;4.80;;;8.20;99.90;;;;;;5069277;28;20074;-49
2023/01/13 00:44:34;;;;;;;26.65;4.45;;;8.20;99.90;;;;;;5069060;28;20083;-49
2023/01/13 00:47:00;;;;;;;24.88;4.43;;;8.20;99.90;;;;;;5068466;28;20056;-48
2023/01/13 00:49:26;;;;;;;24.60;4.10;;;8.20;99.90;;;;;;5069092;28;20036;-46
2023/01/13 00:51:51;;;;;;;35.05;4.40;;;8.20;99.90;;;;;;5087649;28;20089;-50
2023/01/13 00:54:17;;;;;;;26.85;3.97;;;8.10;99.90;;;;;;5072823;28;20044;-48
2023/01/13 00:56:43;;;;;;;26.10;3.75;;;8.10;99.90;;;;;;5075763;28;20043;-50
2023/01/13 00:59:12;;;;;;;24.30;4.13;;;8.10;99.90;;;;;;5074870;28;21092;-50
2023/01/13 01:01:38;;;;;;;29.23;5.07;;;8.10;99.90;;;;;;5073056;28;20045;-51
2023/01/13 01:04:04;;;;;;;27.42;3.90;;;8.10;99.90;;;;;;5072694;28;20072;-52
2023/01/13 01:06:30;;;;;;;27.58;5.57;;;8.10;99.90;;;;;;5072635;28;20157;-48
2023/01/13 01:08:56;;;;;;;27.77;4.28;;;8.20;99.90;;;;;;5072469;28;20499;-48
2023/01/13 01:11:28;;;;;;;33.00;4.53;;;8.20;99.90;;;;;;5070683;28;20056;-50
2023/01/13 01:13:56;;;;;;;33.17;4.40;;;8.20;99.90;;;;;;5072505;28;20111;-51
2023/01/13 01:16:24;;;;;;;25.75;4.38;;;8.20;99.90;;;;;;5081423;28;20055;-49
2023/01/13 01:18:52;;;;;;;29.95;4.93;;;8.20;99.90;;;;;;5076528;28;20032;-50
2023/01/13 01:21:18;;;;;;;28.58;4.95;;;8.20;99.90;;;;;;5080689;28;20048;-49
2023/01/13 01:23:44;;;;;;;27.58;4.82;;;8.20;99.90;;;;;;5082329;28;20115;-50
2023/01/13 01:26:13;;;;;;;29.63;4.53;;;8.20;99.90;;;;;;5072305;28;20123;-50
2023/01/13 01:28:40;;;;;;;25.85;4.00;;;8.20;99.90;;;;;;5071866;28;20371;-51
2023/01/13 01:31:07;;;;;;;30.20;4.70;;;8.20;99.90;;;;;;5072672;28;20059;-50
2023/01/13 01:33:33;;;;;;;36.53;4.88;;;8.20;99.90;;;;;;5084435;28;20488;-48
2023/01/13 01:36:00;;;;;;;32.03;5.93;;;8.10;99.90;;;;;;5071259;28;20067;-49
2023/01/13 01:38:26;;;;;;;30.92;5.43;;;8.20;99.90;;;;;;5076462;28;20937;-48
2023/01/13 01:40:53;;;;;;;26.83;4.93;;;8.70;99.90;;;;;;5071174;28;20089;-50
2023/01/13 01:46:05;;;;;;;30.88;5.35;;;8.10;99.90;;;;;;5071919;28;20052;-50
2023/01/13 01:48:40;;;;;;;24.42;4.93;;;8.10;99.90;;;;;;5072126;28;20032;-53
2023/01/13 01:51:10;;;;;;;26.27;4.95;;;8.00;99.90;;;;;;5084416;28;20075;-49
2023/01/13 01:53:37;;;;;;;32.50;4.95;;;8.00;99.90;;;;;;5078463;28;20040;-49
2023/01/13 01:56:04;;;;;;;35.45;4.65;;;7.90;99.90;;;;;;5072030;28;20147;-50
2023/01/13 01:58:45;;;;;;;31.25;5.40;;;7.90;99.90;;;;;;5070400;28;20041;-49
2023/01/13 02:01:13;;;;;;;34.10;5.38;;;7.80;99.90;;;;;;5071259;28;20032;-48
2023/01/13 02:03:43;;;;;;;36.05;5.50;;;7.80;99.90;;;;;;5071865;28;20036;-47
2023/01/13 02:06:10;;;;;;;31.95;4.75;;;7.70;99.90;;;;;;5071962;28;20074;-48
2023/01/13 02:08:39;;;;;;;27.88;5.15;;;7.70;99.90;;;;;;5071808;28;20569;-48
2023/01/13 02:11:04;;;;;;;29.27;4.65;;;7.60;99.90;;;;;;5070830;28;20047;-50
2023/01/13 02:13:30;;;;;;;26.25;4.50;;;7.60;99.90;;;;;;5071236;28;20033;-47
2023/01/13 02:16:16;;;;;;;25.90;4.05;;;7.50;99.90;;;;;;5079685;28;20044;-50
2023/01/13 02:18:41;;;;;;;32.55;5.22;;;7.50;99.90;;;;;;5072629;28;20044;-50
2023/01/13 02:21:46;;;;;;;30.45;5.03;;;7.50;99.90;;;;;;5071475;28;20480;-51
2023/01/13 02:24:54;;;;;;;33.37;5.07;;;7.40;99.90;;;;;;5053211;28;20053;-48
2023/01/13 02:27:58;;;;;;;37.35;4.63;;;7.40;99.90;;;;;;5071086;28;20090;-49
2023/01/13 02:33:39;;;;;;;29.23;4.80;;;7.30;99.90;;;;;;5070428;28;20047;-49
2023/01/13 02:36:10;;;;;;;33.40;5.00;;;7.30;99.90;;;;;;5073987;28;21057;-47
2023/01/13 02:38:45;;;;;;;30.95;5.20;;;7.30;99.90;;;;;;5071435;28;20041;-48
2023/01/13 02:44:07;;;;;;;39.55;5.78;;;7.30;99.90;;;;;;5077458;28;20183;-48
2023/01/13 02:46:35;;;;;;;30.20;5.78;;;7.30;99.90;;;;;;5070224;28;20384;-48
2023/01/13 02:49:06;;;;;;;35.20;5.03;;;7.30;99.90;;;;;;5070890;28;20048;-46
2023/01/13 02:51:34;;;;;;;37.38;5.22;;;7.40;99.90;;;;;;5071913;28;20044;-46
2023/01/13 02:54:06;;;;;;;29.90;4.95;;;7.40;99.90;;;;;;5075585;28;20067;-48
2023/01/13 02:56:38;;;;;;;36.60;5.72;;;7.50;99.90;;;;;;5070933;28;20090;-46
2023/01/13 02:59:05;;;;;;;39.90;5.68;;;7.60;99.90;;;;;;5070765;28;20507;-49
2023/01/13 03:01:30;;;;;;;30.05;4.88;;;7.60;99.90;;;;;;5070840;28;20427;-48
2023/01/13 03:03:56;;;;;;;33.03;5.72;;;7.60;99.90;;;;;;5070440;28;20082;-48
2023/01/13 03:06:52;;;;;;;38.60;6.53;;;7.70;99.90;;;;;;5070795;28;20043;-49
2023/01/13 03:09:35;;;;;;;30.17;5.30;;;7.70;99.90;;;;;;5069482;28;20048;-47
2023/01/13 03:12:39;;;;;;;33.65;6.03;;;7.70;99.90;;;;;;5070023;28;20049;-47
2023/01/13 03:15:27;;;;;;;32.67;5.70;;;7.80;99.90;;;;;;5070056;28;20048;-49
2023/01/13 03:18:25;;;;;;;34.75;5.53;;;7.80;99.90;;;;;;5070538;28;20041;-46
2023/01/13 03:21:01;;;;;;;44.33;5.28;;;7.70;99.90;;;;;;5058136;28;20133;-48
2023/01/13 03:23:36;;;;;;;33.90;5.43;;;7.80;99.90;;;;;;5070245;28;20131;-49
2023/01/13 03:26:09;;;;;;;36.35;5.88;;;7.80;99.90;;;;;;5072197;28;20048;-46
2023/01/13 03:28:41;;;;;;;34.50;5.03;;;7.90;99.90;;;;;;5071326;28;20043;-48
2023/01/13 03:31:15;;;;;;;28.63;5.28;;;7.80;99.90;;;;;;5070324;28;20080;-47
2023/01/13 03:34:03;;;;;;;36.78;6.15;;;7.80;99.90;;;;;;5079684;28;20119;-50
2023/01/13 03:36:30;;;;;;;35.80;5.80;;;7.90;99.90;;;;;;5078103;28;20460;-46
2023/01/13 03:39:01;;;;;;;36.55;5.70;;;7.80;99.90;;;;;;5070151;28;20049;-48
2023/01/13 03:42:07;;;;;;;34.67;5.85;;;7.90;99.90;;;;;;5078150;28;20040;-47
2023/01/13 03:44:54;;;;;;;39.95;5.72;;;7.90;99.90;;;;;;5076519;28;20101;-47
2023/01/13 03:47:47;;;;;;;34.78;5.97;;;7.90;99.90;;;;;;5069535;28;20056;-47
2023/01/13 03:50:24;;;;;;;35.17;5.10;;;7.90;99.90;;;;;;5069957;28;20055;-48
2023/01/13 03:52:58;;;;;;;40.72;6.10;;;8.00;99.90;;;;;;5075892;28;20127;-48
2023/01/13 03:55:30;;;;;;;37.30;5.68;;;7.90;99.90;;;;;;5070620;28;20090;-48
2023/01/13 03:58:02;;;;;;;36.65;4.90;;;7.90;99.90;;;;;;5069962;28;20038;-50
2023/01/13 04:00:36;;;;;;;36.85;6.20;;;7.90;99.90;;;;;;5069580;28;20044;-47
2023/01/13 04:03:12;;;;;;;34.47;5.63;;;7.90;99.90;;;;;;5070475;28;20065;-46
2023/01/13 04:05:42;;;;;;;35.05;5.78;;;7.90;99.90;;;;;;5070643;28;20080;-46
2023/01/13 04:08:21;;;;;;;35.70;5.82;;;7.90;99.90;;;;;;5069794;28;20107;-48
2023/01/13 04:11:17;;;;;;;34.03;5.90;;;7.90;99.90;;;;;;5070046;28;20029;-48
2023/01/13 04:13:44;;;;;;;31.20;5.68;;;7.80;99.90;;;;;;5069795;28;20036;-52
2023/01/13 04:16:10;;;;;;;31.13;5.68;;;7.80;99.90;;;;;;5069637;28;20044;-49
2023/01/13 04:18:38;;;;;;;30.38;5.72;;;7.80;99.90;;;;;;5074013;28;20041;-46
2023/01/13 04:21:04;;;;;;;31.80;5.10;;;7.90;99.90;;;;;;5068054;28;20037;-47
2023/01/13 04:23:31;;;;;;;45.63;6.22;;;7.80;99.90;;;;;;5070064;28;20040;-48
2023/01/13 04:25:58;;;;;;;32.10;5.53;;;7.80;99.90;;;;;;5069376;28;20451;-50
2023/01/13 04:28:24;;;;;;;36.30;5.38;;;7.80;99.90;;;;;;5069718;28;20419;-47
2023/01/13 04:30:50;;;;;;;30.27;4.85;;;7.70;99.90;;;;;;5068536;28;20025;-46
2023/01/13 04:33:17;;;;;;;29.73;5.90;;;7.80;99.90;;;;;;5074940;28;20111;-47
2023/01/13 04:35:44;;;;;;;27.65;5.30;;;7.80;99.90;;;;;;5072464;28;20090;-48
2023/01/13 04:38:15;;;;;;;39.00;5.35;;;7.70;99.90;;;;;;5074514;28;20033;-48
2023/01/13 04:40:41;;;;;;;36.88;5.80;;;7.80;99.90;;;;;;5075434;28;20039;-46
2023/01/13 04:43:08;;;;;;;33.15;5.00;;;7.70;99.90;;;;;;5079205;28;20449;-46
2023/01/13 04:45:34;;;;;;;32.47;5.00;;;7.70;99.90;;;;;;5073296;28;20044;-47
2023/01/13 04:47:59;;;;;;;29.15;4.80;;;7.60;99.90;;;;;;5074072;28;20047;-49
2023/01/13 04:50:25;;;;;;;33.85;5.88;;;8.00;99.90;;;;;;5074333;28;20067;-49
2023/01/13 04:52:53;;;;;;;20.75;5.45;;;7.60;99.90;;;;;;5073196;28;20033;-48
2023/01/13 04:55:21;;;;;;;39.67;5.55;;;7.60;99.90;;;;;;5073223;28;20043;-49
2023/01/13 04:57:47;;;;;;;31.35;5.18;;;7.60;99.90;;;;;;5072727;28;20495;-49
2023/01/13 05:00:15;;;;;;;30.65;4.57;;;7.60;99.90;;;;;;5073003;28;20036;-49
2023/01/13 05:02:41;;;;;;;36.45;5.28;;;7.50;99.90;;;;;;5073823;28;20408;-50
2023/01/13 05:05:07;;;;;;;25.38;4.82;;;7.50;99.90;;;;;;5073614;28;20036;-49
2023/01/13 05:07:33;;;;;;;26.17;4.00;;;7.50;99.90;;;;;;5073176;28;20033;-46
2023/01/13 05:09:59;;;;;;;27.35;4.45;;;7.60;99.90;;;;;;5072718;28;20372;-51
2023/01/13 05:17:55;;;;;;;25.25;4.45;;;7.40;99.90;;;;;;5073194;28;20418;-46
2023/01/13 05:20:21;;;;;;;29.80;4.28;;;7.50;99.90;;;;;;5071362;28;20037;-47
2023/01/13 05:25:33;;;;;;;24.80;4.00;;;7.50;99.90;;;;;;5071288;28;20125;-48
2023/01/13 05:28:00;;;;;;;28.40;4.45;;;7.50;99.90;;;;;;5072986;28;20123;-48
2023/01/13 05:30:29;;;;;;;25.88;4.72;;;7.50;99.90;;;;;;5081702;28;20036;-46
2023/01/13 05:32:55;;;;;;;20.40;3.65;;;7.50;99.90;;;;;;5072912;28;20051;-49
2023/01/13 05:35:21;;;;;;;23.92;4.30;;;7.50;99.90;;;;;;5087149;28;20032;-49
2023/01/13 05:37:47;;;;;;;29.40;3.70;;;7.50;99.90;;;;;;5079882;28;20032;-46
2023/01/13 05:43:23;;;;;;;22.65;3.47;;;7.50;99.90;;;;;;5071341;28;20063;-49
2023/01/13 05:45:56;;;;;;;20.58;3.72;;;7.50;99.90;;;;;;5079946;28;20097;-48
2023/01/13 05:48:27;;;;;;;19.45;3.22;;;7.50;99.90;;;;;;5074498;28;20031;-47
2023/01/13 05:50:53;;;;;;;21.90;3.83;;;7.40;99.90;;;;;;5072190;28;20037;-46
2023/01/13 05:53:20;;;;;;;20.00;3.30;;;7.40;99.90;;;;;;5089674;28;20919;-49
2023/01/13 05:55:46;;;;;;;25.65;3.88;;;7.50;99.90;;;;;;5091921;28;20052;-53
2023/01/13 05:58:14;;;;;;;24.48;3.55;;;7.40;99.90;;;;;;5070979;28;20079;-51
2023/01/13 06:00:40;;;;;;;18.75;2.95;;;7.40;99.90;;;;;;5072003;28;20484;-48
2023/01/13 06:03:06;;;;;;;17.70;3.17;;;7.40;99.90;;;;;;5072117;28;20052;-47
2023/01/13 06:05:33;;;;;;;19.27;3.03;;;7.40;99.90;;;;;;5070611;28;20067;-51
2023/01/13 06:08:00;;;;;;;16.92;2.80;;;7.40;99.90;;;;;;5071655;28;20131;-49
2023/01/13 06:10:27;;;;;;;17.00;3.25;;;7.50;99.90;;;;;;5072588;28;20124;-49
2023/01/13 06:12:53;;;;;;;29.40;3.63;;;7.50;99.90;;;;;;5086392;28;20093;-51
2023/01/13 06:15:20;;;;;;;17.35;3.30;;;7.50;99.90;;;;;;5070565;28;20032;-50
2023/01/13 06:17:46;;;;;;;18.13;2.72;;;7.60;99.90;;;;;;5071273;28;20044;-52
2023/01/13 06:20:13;;;;;;;14.10;3.20;;;7.70;99.90;;;;;;5071151;28;20114;-50
2023/01/13 06:22:41;;;;;;;22.35;3.03;;;7.60;99.90;;;;;;5071578;28;20044;-50
2023/01/13 06:25:14;;;;;;;14.77;2.75;;;7.60;99.90;;;;;;5069903;28;20045;-46
2023/01/13 06:27:41;;;;;;;18.95;3.67;;;7.70;99.90;;;;;;5069848;28;20102;-47
2023/01/13 06:30:07;;;;;;;15.00;2.75;;;7.70;99.90;;;;;;5090270;28;20085;-47
2023/01/13 06:32:37;;;;;;;16.33;3.55;;;7.70;99.90;;;;;;5073176;28;20083;-51
2023/01/13 06:35:07;;;;;;;15.80;2.97;;;7.70;99.90;;;;;;5075635;28;20047;-48
2023/01/13 06:37:34;;;;;;;14.50;2.95;;;7.70;99.90;;;;;;5082360;28;21248;-47
2023/01/13 06:40:02;;;;;;;20.02;2.92;;;7.70;99.90;;;;;;5071112;28;20472;-48
2023/01/13 06:45:17;;;;;;;18.13;2.90;;;7.60;99.90;;;;;;5069457;28;20109;-49
2023/01/13 06:47:42;;;;;;;18.48;2.95;;;7.70;99.90;;;;;;5070790;28;20034;-46
2023/01/13 06:50:09;;;;;;;17.25;2.25;;;7.70;99.90;;;;;;5070537;28;20043;-48
2023/01/13 06:52:35;;;;;;;17.65;2.92;;;7.70;99.90;;;;;;5069575;28;20044;-46
2023/01/13 06:55:01;;;;;;;16.30;2.38;;;7.70;99.90;;;;;;5070812;28;20051;-50
2023/01/13 06:57:26;;;;;;;16.73;2.78;;;7.80;99.90;;;;;;5070347;28;20431;-47
2023/01/13 06:59:52;;;;;;;16.25;2.80;;;7.70;99.90;;;;;;5072180;28;20125;-47
2023/01/13 07:02:18;;;;;;;23.75;3.08;;;7.70;99.90;;;;;;5070882;28;20166;-47
2023/01/13 07:04:45;;;;;;;19.60;3.05;;;7.80;99.90;;;;;;5073397;28;20044;-46
2023/01/13 07:07:11;;;;;;;22.65;3.75;;;7.70;99.90;;;;;;5070749;28;20036;-47
2023/01/13 07:09:38;;;;;;;23.25;3.33;;;7.70;99.90;;;;;;5070631;28;20068;-49
2023/01/13 07:12:03;;;;;;;19.75;3.10;;;7.70;99.90;;;;;;5070210;28;20495;-51
2023/01/13 07:17:14;;;;;;;17.23;2.88;;;7.70;99.90;;;;;;5069342;28;20047;-46
2023/01/13 07:19:39;;;;;;;20.25;2.78;;;7.70;99.90;;;;;;5069147;28;20036;-48
2023/01/13 07:22:05;;;;;;;21.77;3.20;;;7.60;99.90;;;;;;5070012;28;20134;-48
2023/01/13 07:24:31;;;;;;;21.33;3.78;;;7.60;99.90;;;;;;5075249;28;20085;-47
2023/01/13 07:26:56;;;;;;;27.85;3.78;;;7.50;99.90;;;;;;5074799;28;20036;-47
2023/01/13 07:29:22;;;;;;;20.73;3.03;;;7.50;99.90;;;;;;5073542;28;20137;-47
2023/01/13 07:31:48;;;;;;;18.90;3.53;;;7.40;99.90;;;;;;5068703;28;20075;-49
2023/01/13 07:34:14;;;;;;;17.75;2.80;;;7.40;99.90;;;;;;5071265;28;20033;-46
2023/01/13 07:36:40;;;;;;;24.20;3.47;;;7.30;99.90;;;;;;5054111;28;20449;-47
2023/01/13 07:39:05;;;;;;;18.88;2.92;;;7.30;99.90;;;;;;5051908;28;20086;-52
2023/01/13 07:44:15;;;;;;;20.23;3.55;;;7.30;99.90;;;;;;5059719;28;20064;-47
2023/01/13 07:46:41;;;;;;;22.45;3.35;;;7.30;99.90;;;;;;5060975;28;20053;-48
2023/01/13 07:49:07;;;;;;;22.80;3.60;;;7.30;99.90;;;;;;5057681;28;20062;-49
2023/01/13 07:51:38;;;;;;;24.80;3.40;;;7.20;99.90;;;;;;5060211;28;20044;-50
2023/01/13 07:54:04;;;;;;;18.45;3.40;;;7.30;99.90;;;;;;5060448;28;20460;-47
2023/01/13 07:56:30;;;;;;;25.25;3.42;;;7.30;99.90;;;;;;5058139;28;20492;-47
2023/01/13 07:58:58;;;;;;;25.55;2.95;;;7.20;99.90;;;;;;5056394;28;20040;-47
2023/01/13 08:01:26;;;;;;;21.00;3.75;;;7.20;99.90;;;;;;5057933;28;20460;-50
2023/01/13 08:03:52;;;;;;;28.15;4.03;;;7.20;99.90;;;;;;5059831;28;20120;-50
2023/01/13 08:06:18;;;;;;;30.05;4.55;;;7.30;99.90;;;;;;5059763;28;20037;-48
2023/01/13 08:08:44;;;;;;;18.73;4.20;;;7.20;99.90;;;;;;5062487;28;21192;-47
2023/01/13 08:11:09;;;;;;;23.83;3.30;;;7.20;99.90;;;;;;5063673;28;20028;-47
2023/01/13 08:13:36;;;;;;;21.80;3.70;;;7.20;99.90;;;;;;5062193;28;20064;-48
2023/01/13 08:16:04;;;;;;;27.20;4.15;;;7.20;99.90;;;;;;5063320;28;20106;-49
2023/01/13 08:18:31;;;;;;;25.08;4.10;;;7.20;99.90;;;;;;5062976;28;20403;-52
2023/01/13 08:21:02;;;;;;;22.35;3.45;;;7.60;99.90;;;;;;5063163;28;20063;-49
2023/01/13 08:23:27;;;;;;;22.05;3.80;;;7.20;99.90;;;;;;5061881;28;20816;-47
2023/01/13 08:25:53;;;;;;;24.45;3.67;;;7.20;99.90;;;;;;5060826;28;20037;-48
2023/01/13 08:28:19;;;;;;;24.27;3.67;;;7.20;99.90;;;;;;5061992;28;20459;-49
2023/01/13 08:30:45;;;;;;;24.73;3.97;;;7.20;99.90;;;;;;5062809;28;21171;-49
2023/01/13 08:33:12;;;;;;;25.90;4.22;;;7.20;99.90;;;;;;5056899;28;20602;-50
2023/01/13 08:35:39;;;;;;;21.77;4.18;;;7.20;99.90;;;;;;5053121;28;20094;-49
2023/01/13 08:38:05;;;;;;;23.00;3.85;;;7.30;99.90;;;;;;5057671;28;20071;-51
2023/01/13 08:40:31;;;;;;;22.45;3.55;;;7.40;99.90;;;;;;5056405;28;20043;-51
2023/01/13 08:42:58;;;;;;;26.95;4.05;;;7.20;99.90;;;;;;5061267;28;20091;-47
2023/01/13 08:45:24;;;;;;;24.50;3.78;;;7.30;99.90;;;;;;5062765;28;20045;-48
2023/01/13 08:47:50;;;;;;;20.95;4.13;;;7.30;99.90;;;;;;5062848;28;20507;-52
2023/01/13 08:50:16;;;;;;;23.40;4.03;;;7.30;99.90;;;;;;5062064;28;20036;-49
2023/01/13 08:52:42;;;;;;;23.02;4.03;;;7.30;99.90;;;;;;5044406;28;20069;-50
2023/01/13 08:55:08;;;;;;;23.30;3.33;;;7.40;99.90;;;;;;5062395;28;20417;-46
2023/01/13 08:57:34;;;;;;;24.80;3.80;;;7.40;99.90;;;;;;5065160;28;20064;-49
2023/01/13 08:59:59;;;;;;;22.38;3.40;;;7.50;99.90;;;;;;5076163;28;20121;-47
2023/01/13 09:02:26;;;;;;;26.40;4.32;;;7.40;99.90;;;;;;5067354;28;20118;-50
2023/01/13 09:04:52;;;;;;;26.33;4.40;;;7.50;99.90;;;;;;5068036;28;21095;-46
2023/01/13 09:07:18;;;;;;;19.98;4.18;;;7.50;99.90;;;;;;5072115;28;20098;-46
2023/01/13 09:09:44;;;;;;;19.00;3.35;;;7.40;99.90;;;;;;5071300;28;20036;-51
2023/01/13 09:14:59;;;;;;;21.50;4.00;;;7.60;99.90;;;;;;5070724;28;20060;-50
2023/01/13 09:17:25;;;;;;;28.02;4.10;;;7.60;99.90;;;;;;5076521;28;20036;-48
2023/01/13 09:19:50;;;;;;;21.58;3.58;;;7.60;99.90;;;;;;5071686;28;20036;-50
2023/01/13 09:22:18;;;;;;;18.27;3.83;;;7.60;99.90;;;;;;5072250;28;20041;-51
2023/01/13 09:24:44;;;;;;;21.95;3.75;;;7.60;99.90;;;;;;5074360;28;20060;-49
2023/01/13 09:27:14;;;;;;;22.80;4.07;;;7.90;99.90;;;;;;5083374;28;20391;-51
2023/01/13 09:29:40;;;;;;;24.73;4.07;;;7.60;99.90;;;;;;5070408;28;20047;-49
2023/01/13 09:32:06;;;;;;;21.45;3.92;;;7.60;99.90;;;;;;5071066;28;20036;-49
2023/01/13 09:37:16;;;;;;;23.17;3.90;;;7.60;99.90;;;;;;5059149;28;20500;-50
2023/01/13 09:39:42;;;;;;;24.48;4.22;;;7.70;99.90;;;;;;5060702;28;20033;-48
2023/01/13 09:45:36;;;;;;;24.30;3.83;;;7.60;99.90;;;;;;5060190;28;20538;-50
2023/01/13 09:48:08;;;;;;;20.50;3.58;;;7.60;99.90;;;;;;5061831;28;20758;-47
2023/01/13 09:50:55;;;;;;;31.20;4.28;;;7.60;99.90;;;;;;5061895;28;20566;-49
2023/01/13 09:53:43;;;;;;;27.13;3.83;;;7.60;99.90;;;;;;5063933;28;20032;-50
2023/01/13 09:56:10;;;;;;;24.58;4.32;;;7.60;99.90;;;;;;5059284;28;20512;-48
2023/01/13 09:58:36;;;;;;;33.55;4.57;;;7.50;99.90;;;;;;5061422;28;20147;-46
2023/01/13 10:01:26;;;;;;;24.42;3.72;;;7.50;99.90;;;;;;5057939;28;20551;-50
2023/01/13 10:03:53;;;;;;;24.42;4.38;;;7.50;99.90;;;;;;5059395;28;20040;-46
2023/01/13 10:06:34;;;;;;;29.38;4.07;;;7.40;99.90;;;;;;5059969;28;20514;-49
2023/01/13 10:09:00;;;;;;;25.30;4.22;;;7.50;99.90;;;;;;5060617;28;20582;-47
2023/01/13 10:14:38;;;;;;;28.60;4.25;;;7.60;99.90;;;;;;5059765;28;20048;-49
2023/01/13 10:17:04;;;;;;;27.38;4.90;;;7.60;99.90;;;;;;5059096;28;20033;-50
2023/01/13 10:20:07;;;;;;;25.30;4.25;;;7.50;99.90;;;;;;5059840;28;20059;-48
2023/01/13 10:23:06;;;;;;;31.60;5.13;;;7.60;99.90;;;;;;5047464;28;20040;-48
2023/01/13 10:25:46;;;;;;;24.70;5.15;;;7.70;99.90;;;;;;5057455;28;20043;-49
2023/01/13 10:28:14;;;;;;;32.53;4.55;;;7.70;99.90;;;;;;5059701;28;20032;-48
2023/01/13 10:30:42;;;;;;;33.47;4.40;;;7.50;99.90;;;;;;5057229;28;20036;-50
2023/01/13 10:33:28;;;;;;;25.35;4.70;;;7.70;99.90;;;;;;5060797;28;20025;-49
2023/01/13 10:36:15;;;;;;;25.58;4.57;;;7.60;99.90;;;;;;5056017;28;20040;-48
2023/01/13 10:38:47;;;;;;;33.83;4.85;;;7.60;99.90;;;;;;5057158;28;20518;-49
2023/01/13 10:41:15;;;;;;;28.45;5.03;;;7.60;99.90;;;;;;5058337;28;20104;-50
2023/01/13 10:43:43;;;;;;;36.20;5.45;;;7.60;99.90;;;;;;5054696;28;20048;-47
2023/01/13 10:46:12;;;;;;;26.67;5.10;;;7.70;99.90;;;;;;5060087;28;20365;-49
2023/01/13 10:49:02;;;;;;;30.98;4.80;;;7.70;99.90;;;;;;5055619;28;20036;-47
2023/01/13 10:51:41;;;;;;;31.33;4.15;;;7.70;99.90;;;;;;5057477;28;20492;-46
2023/01/13 10:54:12;;;;;;;22.52;3.75;;;7.70;99.90;;;;;;5057256;28;20328;-47
2023/01/13 10:56:43;;;;;;;25.85;3.70;;;7.70;99.90;;;;;;5059818;28;20036;-50
2023/01/13 10:59:18;;;;;;;28.45;4.00;;;7.70;99.90;;;;;;5058556;28;20028;-47
2023/01/13 11:02:07;;;;;;;22.48;3.90;;;7.80;99.90;;;;;;5054515;28;20067;-50
2023/01/13 11:04:42;;;;;;;20.60;3.13;;;7.70;99.90;;;;;;5034087;28;20163;-50
2023/01/13 11:07:44;;;;;;;21.67;4.55;;;7.70;99.90;;;;;;5048588;28;20047;-48
2023/01/13 11:10:32;;;;;;;25.33;3.88;;;7.80;99.90;;;;;;5076284;28;20434;-46
2023/01/13 11:13:14;;;;;;;23.40;4.25;;;7.90;99.90;;;;;;5057861;28;20040;-47
2023/01/13 11:16:14;;;;;;;22.80;4.57;;;7.90;99.90;;;;;;5059651;28;20036;-49
2023/01/13 11:19:10;;;;;;;19.90;3.60;;;8.00;99.90;;;;;;5060158;28;20060;-50
2023/01/13 11:21:56;;;;;;;18.13;4.03;;;8.00;99.90;;;;;;5059337;28;20035;-47
2023/01/13 11:24:38;;;;;;;23.13;4.00;;;8.10;99.90;;;;;;5058976;28;20040;-47
2023/01/13 11:27:22;;;;;;;21.95;4.25;;;8.10;99.90;;;;;;5055466;28;20158;-49
2023/01/13 11:30:19;;;;;;;20.48;3.60;;;8.10;99.90;;;;;;5061041;28;20048;-48
2023/01/13 11:33:14;;;;;;;21.20;3.70;;;8.10;99.90;;;;;;5060051;28;20080;-49
2023/01/13 11:35:49;;;;;;;19.92;4.07;;;8.10;99.90;;;;;;5058044;28;20115;-46
2023/01/13 11:38:27;;;;;;;20.05;3.80;;;8.20;99.90;;;;;;5057398;28;20039;-46
2023/01/13 11:40:56;;;;;;;15.95;3.33;;;8.20;99.90;;;;;;5059831;28;20083;-49
2023/01/13 11:43:22;;;;;;;24.10;3.28;;;8.40;99.90;;;;;;5059364;28;20044;-46
2023/01/13 11:45:52;;;;;;;21.88;3.38;;;8.30;99.90;;;;;;5059176;28;20105;-50
2023/01/13 11:48:25;;;;;;;18.75;3.40;;;8.40;99.90;;;;;;5060409;28;20025;-49
2023/01/13 11:51:09;;;;;;;20.00;3.10;;;8.40;99.90;;;;;;5056501;28;20029;-47
2023/01/13 11:53:43;;;;;;;20.63;2.83;;;8.40;99.90;;;;;;5057476;28;20044;-49
2023/01/13 11:56:30;;;;;;;16.95;3.22;;;8.40;99.90;;;;;;5061676;28;20040;-47
2023/01/13 11:59:01;;;;;;;21.33;3.38;;;8.40;99.90;;;;;;5058982;28;20067;-49
2023/01/13 12:01:52;;;;;;;22.25;3.60;;;8.40;99.90;;;;;;5053310;28;20036;-46
2023/01/13 12:04:48;;;;;;;17.60;3.05;;;8.40;99.90;;;;;;5054042;28;20916;-47
2023/01/13 12:07:17;;;;;;;17.70;3.00;;;8.50;99.90;;;;;;5056065;28;20084;-47
2023/01/13 12:10:12;;;;;;;14.57;2.92;;;8.50;99.90;;;;;;5057486;28;20127;-47
2023/01/13 12:13:12;;;;;;;20.15;3.25;;;8.60;99.90;;;;;;5038100;28;20049;-49
2023/01/13 12:16:12;;;;;;;18.40;2.58;;;8.50;99.90;;;;;;5055864;28;20036;-47
2023/01/13 12:18:47;;;;;;;16.88;3.10;;;8.60;99.90;;;;;;5053918;28;20039;-47
2023/01/13 12:21:50;;;;;;;17.83;3.47;;;8.50;99.90;;;;;;5055068;28;20028;-48
2023/01/13 12:24:43;;;;;;;17.73;3.70;;;8.50;99.90;;;;;;5016319;28;20045;-49
2023/01/13 12:27:19;;;;;;;11.88;2.38;;;8.50;99.90;;;;;;5048012;28;20044;-50
2023/01/13 12:29:47;;;;;;;15.15;2.28;;;8.50;99.90;;;;;;5055255;28;20040;-49
2023/01/13 12:32:26;;;;;;;15.52;2.88;;;8.50;99.90;;;;;;5056808;28;20060;-46
2023/01/13 12:35:28;;;;;;;14.38;2.55;;;8.40;99.90;;;;;;5059371;28;20128;-51
2023/01/13 12:38:25;;;;;;;16.33;2.33;;;8.50;99.90;;;;;;5072285;28;20123;-49
2023/01/13 12:40:59;;;;;;;15.15;2.33;;;8.50;99.90;;;;;;5079890;28;20241;-51
2023/01/13 12:46:21;;;;;;;24.45;2.85;;;8.60;99.90;;;;;;5066928;28;20051;-48
2023/01/13 12:48:56;;;;;;;16.70;2.80;;;8.60;99.90;;;;;;5069439;28;20028;-51
2023/01/13 12:51:32;;;;;;;17.90;3.03;;;8.60;99.90;;;;;;5069293;28;20051;-49
2023/01/13 12:53:59;;;;;;;16.00;2.78;;;8.60;99.90;;;;;;5069907;28;20036;-49
2023/01/13 12:56:43;;;;;;;13.88;2.60;;;8.60;99.90;;;;;;5076989;28;20514;-49
2023/01/13 12:59:18;;;;;;;15.50;2.70;;;8.60;99.90;;;;;;5078277;28;20036;-48
2023/01/13 13:02:10;;;;;;;17.70;2.35;;;8.60;99.90;;;;;;5077032;28;20115;-49
2023/01/13 13:04:44;;;;;;;13.35;2.45;;;8.60;99.90;;;;;;5077819;28;20051;-49
2023/01/13 13:07:25;;;;;;;14.00;2.22;;;8.60;99.90;;;;;;5077366;28;20032;-48
2023/01/13 13:10:29;;;;;;;14.05;2.90;;;8.70;99.90;;;;;;5084938;28;20410;-46
2023/01/13 13:13:16;;;;;;;15.27;3.00;;;8.70;99.90;;;;;;5074794;28;20045;-49
2023/01/13 13:15:47;;;;;;;14.98;2.50;;;8.70;99.90;;;;;;5082612;28;20071;-52
2023/01/13 13:18:15;;;;;;;11.02;2.20;;;8.70;99.90;;;;;;5074401;28;20044;-49
2023/01/13 13:21:07;;;;;;;14.23;2.47;;;8.70;99.90;;;;;;5072396;28;20040;-49
2023/01/13 13:23:36;;;;;;;16.30;2.50;;;8.70;99.90;;;;;;5072193;28;20091;-48
2023/01/13 13:26:02;;;;;;;14.52;2.50;;;9.50;99.90;;;;;;5075789;28;20392;-47
2023/01/13 13:28:34;;;;;;;14.63;2.47;;;8.70;99.90;;;;;;5072735;28;20046;-46
2023/01/13 13:31:27;;;;;;;14.68;2.25;;;8.80;99.90;;;;;;5072622;28;20048;-49
2023/01/13 13:34:05;;;;;;;12.15;2.13;;;8.70;99.90;;;;;;5072493;28;20361;-50
2023/01/13 13:36:45;;;;;;;11.27;2.40;;;8.70;99.90;;;;;;5087083;28;20028;-50
2023/01/13 13:48:24;;;;;;;11.82;2.33;;;8.70;99.90;;;;;;5075809;28;20119;-48
2023/01/13 13:50:56;;;;;;;11.40;2.13;;;8.60;99.90;;;;;;5069719;28;20043;-51
2023/01/13 13:53:26;;;;;;;13.23;2.55;;;8.60;99.90;;;;;;5067563;28;20107;-52
2023/01/13 13:55:56;;;;;;;11.77;2.30;;;8.60;99.90;;;;;;5070296;28;20032;-49
2023/01/13 13:58:24;;;;;;;14.70;2.50;;;8.60;99.90;;;;;;5065513;28;20044;-47
2023/01/13 14:00:51;;;;;;;13.50;3.13;;;8.60;99.90;;;;;;5072964;28;20047;-47
2023/01/13 14:03:35;;;;;;;13.43;2.10;;;8.60;99.90;;;;;;5070155;28;20048;-49
2023/01/13 14:06:05;;;;;;;13.05;2.55;;;8.60;99.90;;;;;;5069408;28;20045;-50
2023/01/13 14:08:37;;;;;;;14.35;2.17;;;8.60;99.90;;;;;;5071513;28;20039;-51